Time;durP1;ratioP1;P1;durP2;ratioP2;P2;SDS_P1;SDS_P2;PMS_P1;PMS_P2;Temp;Humidity;BMP_temperature;BMP_pressure;BME280_temperature;BME280_humidity;BME280_pressure;Samples;Min_cycle;Max_cycle;Signal;HPM_P1;HPM_P2
2021/06/12 00:00:36;;;;;;;14.75;12.35;;;;;;;;;;5095621;28;20016;-62
2021/06/12 00:03:03;;;;;;;13.43;11.98;;;;;;;;;;5095793;28;20020;-62
2021/06/12 00:05:28;;;;;;;15.80;11.63;;;;;;;;;;5095649;28;20031;-62
2021/06/12 00:07:54;;;;;;;13.32;10.38;;;;;;;;;;5094571;28;20027;-62
2021/06/12 00:10:22;;;;;;;13.98;12.52;;;;;;;;;;5095736;28;20015;-63
2021/06/12 00:12:48;;;;;;;10.15;9.25;;;;;;;;;;5095339;28;20028;-62
2021/06/12 00:15:15;;;;;;;13.65;9.73;;;;;;;;;;5095547;28;20103;-62
2021/06/12 00:17:41;;;;;;;11.18;9.00;;;;;;;;;;5095332;28;20040;-63
2021/06/12 00:20:07;;;;;;;10.25;9.25;;;;;;;;;;5095761;28;20016;-63
2021/06/12 00:22:33;;;;;;;10.07;9.05;;;;;;;;;;5095312;28;20501;-63
2021/06/12 00:25:00;;;;;;;11.07;9.60;;;;;;;;;;5093946;28;20031;-63
2021/06/12 00:27:28;;;;;;;11.32;10.10;;;;;;;;;;5093563;28;20040;-63
2021/06/12 00:29:54;;;;;;;12.50;10.77;;;;;;;;;;5094132;28;20081;-63
2021/06/12 00:32:20;;;;;;;14.82;11.43;;;;;;;;;;5095064;28;20115;-63
2021/06/12 00:34:46;;;;;;;13.25;11.77;;;;;;;;;;5093910;28;20059;-62
2021/06/12 00:37:11;;;;;;;15.25;12.23;;;;;;;;;;5094924;28;20036;-62
2021/06/12 00:39:37;;;;;;;15.25;12.10;;;;;;;;;;5093130;28;20378;-62
2021/06/12 00:42:02;;;;;;;16.13;13.27;;;;;;;;;;5092994;28;20067;-62
2021/06/12 00:44:28;;;;;;;17.70;13.25;;;;;;;;;;5094753;28;20027;-62
2021/06/12 00:46:53;;;;;;;15.15;13.18;;;;;;;;;;5094828;28;20036;-62
2021/06/12 00:49:20;;;;;;;15.55;13.38;;;;;;;;;;5094727;28;20028;-62
2021/06/12 00:51:45;;;;;;;17.17;13.18;;;;;;;;;;5094535;28;20461;-62
2021/06/12 00:54:11;;;;;;;17.50;13.95;;;;;;;;;;5094562;28;20051;-62
2021/06/12 00:56:36;;;;;;;15.70;13.02;;;;;;;;;;5093308;28;20040;-62
2021/06/12 00:59:02;;;;;;;17.77;13.82;;;;;;;;;;5093264;28;20020;-62
2021/06/12 01:01:28;;;;;;;17.08;13.50;;;;;;;;;;5094699;28;20032;-63
2021/06/12 01:03:53;;;;;;;19.58;15.23;;;;;;;;;;5094700;28;20017;-63
2021/06/12 01:06:22;;;;;;;17.85;13.32;;;;;;;;;;5094941;28;20478;-63
2021/06/12 01:08:47;;;;;;;18.02;13.13;;;;;;;;;;5093369;28;20027;-63
2021/06/12 01:11:13;;;;;;;18.20;14.18;;;;;;;;;;5094211;28;20024;-63
2021/06/12 01:13:39;;;;;;;18.00;13.88;;;;;;;;;;5092920;28;20028;-62
2021/06/12 01:16:20;;;;;;;16.92;13.43;;;;;;;;;;5094404;28;20523;-62
2021/06/12 01:18:46;;;;;;;18.83;13.43;;;;;;;;;;5092805;28;20024;-62
2021/06/12 01:21:18;;;;;;;15.85;12.98;;;;;;;;;;5094408;28;20016;-62
2021/06/12 01:24:02;;;;;;;16.15;13.88;;;;;;;;;;5093805;28;20115;-63
2021/06/12 01:26:42;;;;;;;13.77;12.27;;;;;;;;;;5094023;28;20024;-62
2021/06/12 01:29:07;;;;;;;;;;;;;;;;;;5094511;28;20032;-62
2021/06/12 01:31:33;;;;;;;11.88;10.38;;;;;;;;;;5093957;28;19914;-63
2021/06/12 01:34:01;;;;;;;11.68;10.13;;;;;;;;;;5094078;28;20081;-62
2021/06/12 01:36:28;;;;;;;13.70;10.52;;;;;;;;;;5093792;28;20019;-62
2021/06/12 01:38:54;;;;;;;13.35;11.07;;;;;;;;;;5093758;28;20431;-62
2021/06/12 01:41:21;;;;;;;14.43;11.38;;;;;;;;;;5093212;28;20044;-62
2021/06/12 01:43:48;;;;;;;14.73;11.50;;;;;;;;;;5094138;28;20024;-62
2021/06/12 01:46:13;;;;;;;17.10;12.77;;;;;;;;;;5093958;28;20104;-62
2021/06/12 01:48:42;;;;;;;12.80;11.05;;;;;;;;;;5093731;28;20486;-62
2021/06/12 01:51:08;;;;;;;11.95;10.55;;;;;;;;;;5092792;28;20027;-62
2021/06/12 01:53:35;;;;;;;12.13;10.65;;;;;;;;;;5092431;28;20044;-62
2021/06/12 01:56:02;;;;;;;11.60;10.07;;;;;;;;;;5093925;28;20028;-62
2021/06/12 01:58:28;;;;;;;11.25;9.90;;;;;;;;;;5093727;28;20097;-62
2021/06/12 02:00:54;;;;;;;11.32;9.80;;;;;;;;;;5093760;28;20024;-63
2021/06/12 02:03:21;;;;;;;10.98;9.63;;;;;;;;;;5093737;28;20489;-62
2021/06/12 02:05:48;;;;;;;10.02;8.93;;;;;;;;;;5093764;28;20026;-63
2021/06/12 02:08:14;;;;;;;7.97;7.28;;;;;;;;;;5093577;28;20028;-63
2021/06/12 02:10:41;;;;;;;7.30;6.68;;;;;;;;;;5093487;28;20032;-63
2021/06/12 02:13:07;;;;;;;9.82;8.85;;;;;;;;;;5093703;28;20028;-62
2021/06/12 02:15:33;;;;;;;9.43;8.48;;;;;;;;;;5093746;28;20016;-62
2021/06/12 02:17:59;;;;;;;9.82;8.77;;;;;;;;;;5092277;28;20028;-62
2021/06/12 02:20:26;;;;;;;11.18;8.70;;;;;;;;;;5093644;28;20094;-62
2021/06/12 02:22:52;;;;;;;9.98;8.98;;;;;;;;;;5092331;28;20024;-62
2021/06/12 02:25:18;;;;;;;9.65;8.77;;;;;;;;;;5093404;28;20475;-63
2021/06/12 02:27:48;;;;;;;7.60;6.95;;;;;;;;;;5093298;28;20024;-62
2021/06/12 02:30:13;;;;;;;7.20;5.63;;;;;;;;;;5093467;28;20020;-62
2021/06/12 02:32:41;;;;;;;6.75;6.05;;;;;;;;;;5093126;28;20451;-63
2021/06/12 02:35:08;;;;;;;6.97;5.65;;;;;;;;;;5093527;28;20462;-63
2021/06/12 02:37:34;;;;;;;6.60;5.97;;;;;;;;;;5093168;28;20040;-62
2021/06/12 02:39:59;;;;;;;6.85;5.93;;;;;;;;;;5093220;28;20016;-63
2021/06/12 02:42:25;;;;;;;7.85;5.95;;;;;;;;;;5092661;28;20118;-62
2021/06/12 02:44:51;;;;;;;6.95;5.90;;;;;;;;;;5093520;28;20117;-62
2021/06/12 02:47:17;;;;;;;7.35;6.63;;;;;;;;;;5093683;28;20032;-62
2021/06/12 02:49:43;;;;;;;7.88;7.03;;;;;;;;;;5093337;28;20408;-63
2021/06/12 02:52:14;;;;;;;7.80;6.90;;;;;;;;;;5093130;28;20032;-62
2021/06/12 02:54:40;;;;;;;9.80;6.68;;;;;;;;;;5093274;28;20359;-62
2021/06/12 02:57:07;;;;;;;7.90;6.70;;;;;;;;;;5093278;28;20086;-62
2021/06/12 02:59:34;;;;;;;7.55;6.80;;;;;;;;;;5093215;28;20038;-62
2021/06/12 03:02:02;;;;;;;9.38;6.93;;;;;;;;;;5094617;28;20024;-63
2021/06/12 03:04:30;;;;;;;8.57;6.72;;;;;;;;;;5096983;28;20028;-63
2021/06/12 03:06:56;;;;;;;7.20;6.50;;;;;;;;;;5097001;28;20027;-62
2021/06/12 03:09:24;;;;;;;6.97;6.30;;;;;;;;;;5096637;28;20479;-62
2021/06/12 03:11:51;;;;;;;6.95;6.25;;;;;;;;;;5095247;28;20114;-62
2021/06/12 03:14:17;;;;;;;7.95;7.15;;;;;;;;;;5096072;28;20077;-62
2021/06/12 03:16:44;;;;;;;8.35;7.07;;;;;;;;;;5096584;28;20085;-62
2021/06/12 03:19:10;;;;;;;7.15;6.47;;;;;;;;;;5096607;28;20043;-62
2021/06/12 03:21:36;;;;;;;7.00;6.38;;;;;;;;;;5096732;28;20443;-63
2021/06/12 03:24:02;;;;;;;7.97;7.18;;;;;;;;;;5096542;28;20077;-62
2021/06/12 03:26:27;;;;;;;7.65;6.95;;;;;;;;;;5096370;28;20020;-62
2021/06/12 03:28:54;;;;;;;6.82;6.22;;;;;;;;;;5096502;28;20458;-66
2021/06/12 03:31:20;;;;;;;6.93;6.32;;;;;;;;;;5096585;28;20024;-66
2021/06/12 03:33:45;;;;;;;7.55;6.80;;;;;;;;;;5095116;28;20073;-65
2021/06/12 03:36:12;;;;;;;7.18;6.40;;;;;;;;;;5096173;28;20024;-66
2021/06/12 03:38:37;;;;;;;7.35;6.68;;;;;;;;;;5096101;28;20082;-66
2021/06/12 03:41:04;;;;;;;7.28;6.57;;;;;;;;;;5095830;28;20461;-66
2021/06/12 03:43:30;;;;;;;7.32;6.63;;;;;;;;;;5095013;28;20378;-66
2021/06/12 03:45:58;;;;;;;7.05;6.35;;;;;;;;;;5096077;28;20485;-66
2021/06/12 03:48:24;;;;;;;7.15;6.50;;;;;;;;;;5096005;28;20158;-66
2021/06/12 03:50:51;;;;;;;6.90;6.30;;;;;;;;;;5095895;28;20115;-66
2021/06/12 03:53:17;;;;;;;7.93;7.13;;;;;;;;;;5096139;28;20024;-67
2021/06/12 03:55:43;;;;;;;7.72;6.88;;;;;;;;;;5095074;28;20382;-66
2021/06/12 03:58:09;;;;;;;7.38;6.68;;;;;;;;;;5096072;28;20032;-66
2021/06/12 04:00:34;;;;;;;8.23;7.53;;;;;;;;;;5095872;28;20020;-66
2021/06/12 04:03:00;;;;;;;13.18;9.77;;;;;;;;;;5095940;28;20024;-66
2021/06/12 04:05:25;;;;;;;16.92;11.77;;;;;;;;;;5095725;28;20103;-66
2021/06/12 04:07:51;;;;;;;16.63;11.85;;;;;;;;;;5095882;28;20028;-62
2021/06/12 04:10:17;;;;;;;16.30;11.95;;;;;;;;;;5095218;28;20059;-62
2021/06/12 04:12:42;;;;;;;13.27;11.02;;;;;;;;;;5094002;28;20028;-63
2021/06/12 04:15:08;;;;;;;11.82;10.48;;;;;;;;;;5093682;28;20066;-62
2021/06/12 04:17:34;;;;;;;14.25;11.73;;;;;;;;;;5095340;28;20059;-63
2021/06/12 04:20:00;;;;;;;13.90;11.93;;;;;;;;;;5095577;28;20099;-62
2021/06/12 04:22:27;;;;;;;12.77;10.77;;;;;;;;;;5095512;28;20131;-62
2021/06/12 04:24:52;;;;;;;11.20;9.30;;;;;;;;;;5095251;28;20012;-62
2021/06/12 04:27:18;;;;;;;11.65;10.05;;;;;;;;;;5095208;28;20074;-62
2021/06/12 04:29:43;;;;;;;12.32;10.32;;;;;;;;;;5094038;28;20016;-62
2021/06/12 04:32:09;;;;;;;12.65;11.15;;;;;;;;;;5095207;28;20035;-62
2021/06/12 04:34:34;;;;;;;12.80;11.07;;;;;;;;;;5095092;28;20498;-62
2021/06/12 04:37:02;;;;;;;13.98;11.25;;;;;;;;;;5094979;28;20055;-62
2021/06/12 04:39:28;;;;;;;14.90;11.75;;;;;;;;;;5094940;28;20462;-67
2021/06/12 04:41:53;;;;;;;14.45;11.43;;;;;;;;;;5094705;28;20035;-67
2021/06/12 04:44:19;;;;;;;15.35;12.82;;;;;;;;;;5094930;28;20051;-66
2021/06/12 04:46:44;;;;;;;17.15;13.70;;;;;;;;;;5094994;28;20059;-66
2021/06/12 04:49:10;;;;;;;14.82;12.30;;;;;;;;;;5095073;28;20052;-62
2021/06/12 04:51:36;;;;;;;14.38;12.35;;;;;;;;;;5093480;28;20063;-62
2021/06/12 04:54:01;;;;;;;16.13;13.38;;;;;;;;;;5094807;28;20026;-62
2021/06/12 04:56:27;;;;;;;16.83;13.65;;;;;;;;;;5094675;28;20067;-62
2021/06/12 04:58:53;;;;;;;16.27;12.98;;;;;;;;;;5094737;28;20012;-62
2021/06/12 05:01:18;;;;;;;19.30;13.63;;;;;;;;;;5094865;28;20112;-62
2021/06/12 05:03:45;;;;;;;16.17;12.77;;;;;;;;;;5093392;28;20034;-62
2021/06/12 05:06:10;;;;;;;14.93;12.30;;;;;;;;;;5094452;28;20047;-67
2021/06/12 05:08:36;;;;;;;17.63;12.82;;;;;;;;;;5094825;28;20012;-67
2021/06/12 05:11:01;;;;;;;13.85;11.52;;;;;;;;;;5094354;28;20088;-67
2021/06/12 05:13:27;;;;;;;14.75;11.82;;;;;;;;;;5094618;28;20041;-67
2021/06/12 05:15:53;;;;;;;15.52;12.07;;;;;;;;;;5093127;28;20031;-62
2021/06/12 05:18:21;;;;;;;12.68;11.07;;;;;;;;;;5094325;28;20016;-62
2021/06/12 05:20:46;;;;;;;15.90;12.43;;;;;;;;;;5094518;28;20078;-67
2021/06/12 05:23:12;;;;;;;15.55;12.88;;;;;;;;;;5094416;28;20539;-67
2021/06/12 05:25:37;;;;;;;11.93;10.73;;;;;;;;;;5092841;28;20031;-67
2021/06/12 05:28:03;;;;;;;14.70;12.27;;;;;;;;;;5094275;28;20462;-66
2021/06/12 05:30:29;;;;;;;15.70;12.05;;;;;;;;;;5094260;28;20052;-66
2021/06/12 05:32:55;;;;;;;15.65;12.20;;;;;;;;;;5094269;28;20047;-66
2021/06/12 05:35:20;;;;;;;17.23;13.43;;;;;;;;;;5092738;28;20541;-67
2021/06/12 05:37:46;;;;;;;18.40;14.07;;;;;;;;;;5094078;28;20020;-67
2021/06/12 05:40:12;;;;;;;17.13;13.38;;;;;;;;;;5093871;28;20085;-67
2021/06/12 05:42:38;;;;;;;16.42;13.32;;;;;;;;;;5093598;28;20099;-66
2021/06/12 05:45:05;;;;;;;17.98;13.35;;;;;;;;;;5093893;28;20028;-66
2021/06/12 05:47:31;;;;;;;19.50;13.93;;;;;;;;;;5093561;28;20089;-66
2021/06/12 05:49:56;;;;;;;18.38;14.05;;;;;;;;;;5093491;28;20439;-65
2021/06/12 05:52:22;;;;;;;19.13;13.88;;;;;;;;;;5093846;28;20020;-66
2021/06/12 05:54:47;;;;;;;17.83;14.57;;;;;;;;;;5092571;28;20028;-66
2021/06/12 05:57:13;;;;;;;21.48;15.35;;;;;;;;;;5093867;28;20024;-66
2021/06/12 05:59:38;;;;;;;16.50;13.35;;;;;;;;;;5092549;28;20089;-66
2021/06/12 06:02:04;;;;;;;19.17;14.43;;;;;;;;;;5093815;28;20016;-66
2021/06/12 06:04:29;;;;;;;18.23;13.73;;;;;;;;;;5093563;28;20470;-66
2021/06/12 06:06:54;;;;;;;18.13;13.50;;;;;;;;;;5093866;28;20377;-66
2021/06/12 06:09:20;;;;;;;21.48;16.42;;;;;;;;;;5092388;28;20032;-66
2021/06/12 06:11:46;;;;;;;24.23;17.52;;;;;;;;;;5093314;28;20012;-66
2021/06/12 06:14:11;;;;;;;20.73;15.90;;;;;;;;;;5093376;28;20031;-66
2021/06/12 06:16:37;;;;;;;19.40;15.82;;;;;;;;;;5093461;28;20138;-66
2021/06/12 06:19:02;;;;;;;20.25;15.45;;;;;;;;;;5092170;28;20024;-66
2021/06/12 06:21:28;;;;;;;22.02;14.85;;;;;;;;;;5092154;28;20367;-66
2021/06/12 06:23:54;;;;;;;19.63;15.00;;;;;;;;;;5093562;28;20032;-66
2021/06/12 06:26:23;;;;;;;19.88;15.63;;;;;;;;;;5093195;28;20024;-67
2021/06/12 06:28:49;;;;;;;23.50;17.15;;;;;;;;;;5091954;28;20516;-61
2021/06/12 06:31:16;;;;;;;20.65;14.35;;;;;;;;;;5093434;28;20020;-61
2021/06/12 06:33:42;;;;;;;22.30;15.15;;;;;;;;;;5093233;28;20111;-62
2021/06/12 06:36:08;;;;;;;19.38;14.35;;;;;;;;;;5093125;28;20050;-62
2021/06/12 06:38:33;;;;;;;21.90;16.45;;;;;;;;;;5097505;28;20020;-62
2021/06/12 06:40:59;;;;;;;22.60;15.70;;;;;;;;;;5097178;28;20047;-62
2021/06/12 06:43:24;;;;;;;21.63;16.00;;;;;;;;;;5097334;28;20028;-62
2021/06/12 06:45:51;;;;;;;23.20;16.02;;;;;;;;;;5095541;28;20076;-62
2021/06/12 06:48:16;;;;;;;20.67;15.23;;;;;;;;;;5097492;28;20028;-62
2021/06/12 06:50:43;;;;;;;23.63;16.65;;;;;;;;;;5097245;28;20028;-62
2021/06/12 06:53:09;;;;;;;24.10;16.77;;;;;;;;;;5095903;28;20031;-62
2021/06/12 06:55:35;;;;;;;18.27;13.50;;;;;;;;;;5096816;28;20016;-62
2021/06/12 06:58:01;;;;;;;19.58;15.30;;;;;;;;;;5095872;28;20036;-62
2021/06/12 07:00:27;;;;;;;24.83;17.38;;;;;;;;;;5096023;28;20016;-62
2021/06/12 07:02:53;;;;;;;20.67;15.10;;;;;;;;;;5097239;28;20032;-62
2021/06/12 07:05:19;;;;;;;22.73;15.50;;;;;;;;;;5097106;28;20028;-62
2021/06/12 07:07:45;;;;;;;19.83;13.90;;;;;;;;;;5097022;28;20024;-62
2021/06/12 07:10:11;;;;;;;18.90;13.23;;;;;;;;;;5096336;28;20087;-62
2021/06/12 07:12:36;;;;;;;19.60;14.55;;;;;;;;;;5086494;28;20036;-61
2021/06/12 07:15:02;;;;;;;16.88;13.18;;;;;;;;;;5093266;28;20028;-61
2021/06/12 07:17:28;;;;;;;21.70;15.60;;;;;;;;;;5093315;28;20371;-62
2021/06/12 07:19:54;;;;;;;19.75;14.20;;;;;;;;;;5093845;28;20149;-62
2021/06/12 07:22:19;;;;;;;15.27;12.35;;;;;;;;;;5093100;28;20119;-62
2021/06/12 07:24:45;;;;;;;13.88;10.60;;;;;;;;;;5093633;28;20115;-62
2021/06/12 07:27:12;;;;;;;17.58;11.90;;;;;;;;;;5093523;28;20040;-62
2021/06/12 07:29:38;;;;;;;22.70;14.63;;;;;;;;;;5093234;28;20028;-62
2021/06/12 07:32:04;;;;;;;17.95;12.05;;;;;;;;;;5092858;28;20110;-63
2021/06/12 07:34:30;;;;;;;14.60;10.88;;;;;;;;;;5092531;28;20042;-63
2021/06/12 07:36:55;;;;;;;16.83;11.73;;;;;;;;;;5090770;28;20035;-63
2021/06/12 07:39:21;;;;;;;18.65;12.20;;;;;;;;;;5092627;28;20474;-61
2021/06/12 07:41:46;;;;;;;11.55;9.18;;;;;;;;;;5092121;28;20040;-63
2021/06/12 07:44:12;;;;;;;14.95;9.63;;;;;;;;;;5092910;28;20020;-63
2021/06/12 07:46:38;;;;;;;11.75;8.68;;;;;;;;;;5092518;28;20032;-62
2021/06/12 07:49:04;;;;;;;12.68;9.32;;;;;;;;;;5090472;28;20104;-62
2021/06/12 07:51:34;;;;;;;11.68;9.35;;;;;;;;;;5091154;28;20028;-62
2021/06/12 07:54:00;;;;;;;13.88;9.30;;;;;;;;;;5091692;28;20028;-62
2021/06/12 07:56:26;;;;;;;14.93;10.65;;;;;;;;;;5092289;28;20028;-62
2021/06/12 07:58:52;;;;;;;11.75;9.18;;;;;;;;;;5092632;28;20032;-61
2021/06/12 08:01:17;;;;;;;11.70;9.80;;;;;;;;;;5092037;28;20050;-61
2021/06/12 08:03:43;;;;;;;11.73;8.93;;;;;;;;;;5090635;28;20028;-61
2021/06/12 08:06:08;;;;;;;9.43;7.25;;;;;;;;;;5092541;28;20129;-61
2021/06/12 08:08:34;;;;;;;8.82;7.80;;;;;;;;;;5093008;28;20028;-61
2021/06/12 08:11:00;;;;;;;11.85;7.40;;;;;;;;;;5092296;28;20190;-60
2021/06/12 08:13:26;;;;;;;8.45;7.47;;;;;;;;;;5092848;28;20020;-61
2021/06/12 08:15:52;;;;;;;7.75;5.82;;;;;;;;;;5092477;28;20023;-60
2021/06/12 08:18:17;;;;;;;7.15;6.47;;;;;;;;;;5092918;28;20393;-60
2021/06/12 08:20:43;;;;;;;9.40;7.28;;;;;;;;;;5091558;28;20137;-60
2021/06/12 08:23:09;;;;;;;8.85;6.97;;;;;;;;;;5092093;28;20020;-59
2021/06/12 08:25:35;;;;;;;10.07;8.13;;;;;;;;;;5092157;28;20031;-59
2021/06/12 08:28:05;;;;;;;14.40;9.10;;;;;;;;;;5092140;28;20036;-59
2021/06/12 08:30:36;;;;;;;13.95;9.45;;;;;;;;;;5092134;28;20024;-59
2021/06/12 08:33:05;;;;;;;10.27;9.02;;;;;;;;;;5091507;28;20446;-60
2021/06/12 08:35:31;;;;;;;11.35;7.95;;;;;;;;;;5091435;28;20090;-59
2021/06/12 08:37:57;;;;;;;9.45;8.20;;;;;;;;;;5092220;28;20031;-59
2021/06/12 08:40:24;;;;;;;13.60;8.25;;;;;;;;;;5091519;28;20466;-59
2021/06/12 08:42:50;;;;;;;10.13;8.65;;;;;;;;;;5091050;28;20037;-59
2021/06/12 08:45:19;;;;;;;8.55;7.68;;;;;;;;;;5091572;28;20159;-60
2021/06/12 08:47:45;;;;;;;7.05;5.63;;;;;;;;;;5091683;28;20031;-59
2021/06/12 08:50:11;;;;;;;8.00;6.45;;;;;;;;;;5091748;28;20039;-59
2021/06/12 08:52:38;;;;;;;7.82;7.10;;;;;;;;;;5091603;28;20032;-59
2021/06/12 08:55:05;;;;;;;7.50;6.72;;;;;;;;;;5091392;28;20139;-59
2021/06/12 08:57:31;;;;;;;7.57;6.38;;;;;;;;;;5091796;28;20664;-61
2021/06/12 08:59:56;;;;;;;9.13;7.20;;;;;;;;;;5090345;28;20027;-61
2021/06/12 09:02:29;;;;;;;11.95;7.57;;;;;;;;;;5090408;28;20054;-61
2021/06/12 09:04:55;;;;;;;9.32;7.13;;;;;;;;;;5073122;28;20362;-61
2021/06/12 09:07:23;;;;;;;7.90;7.10;;;;;;;;;;5091983;28;20040;-61
2021/06/12 09:09:56;;;;;;;11.13;6.75;;;;;;;;;;5091591;28;20024;-61
2021/06/12 09:12:22;;;;;;;7.72;6.80;;;;;;;;;;5091634;28;20050;-61
2021/06/12 09:15:10;;;;;;;7.07;5.55;;;;;;;;;;5091730;28;20478;-61
2021/06/12 09:17:40;;;;;;;6.82;5.50;;;;;;;;;;5080463;28;20524;-61
2021/06/12 09:20:08;;;;;;;5.45;4.88;;;;;;;;;;5090959;28;20047;-61
2021/06/12 09:22:34;;;;;;;5.82;5.13;;;;;;;;;;5090454;28;20545;-61
2021/06/12 09:24:59;;;;;;;7.05;5.97;;;;;;;;;;5091616;28;20112;-61
2021/06/12 09:27:25;;;;;;;6.50;5.65;;;;;;;;;;5091448;28;20451;-61
2021/06/12 09:29:51;;;;;;;8.25;5.97;;;;;;;;;;5091189;28;20022;-61
2021/06/12 09:32:18;;;;;;;7.60;5.40;;;;;;;;;;5091109;28;20512;-61
2021/06/12 09:34:45;;;;;;;7.97;5.05;;;;;;;;;;5091183;28;20370;-61
2021/06/12 09:37:12;;;;;;;9.15;5.10;;;;;;;;;;5089298;28;20055;-61
2021/06/12 09:39:38;;;;;;;7.55;5.10;;;;;;;;;;5090862;28;20107;-61
2021/06/12 09:42:04;;;;;;;6.28;5.18;;;;;;;;;;5089974;28;20139;-61
2021/06/12 09:44:35;;;;;;;5.03;4.50;;;;;;;;;;5091271;28;20034;-61
2021/06/12 09:47:01;;;;;;;7.82;5.40;;;;;;;;;;5091367;28;20190;-61
2021/06/12 09:49:32;;;;;;;9.57;5.32;;;;;;;;;;5091211;28;20110;-62
2021/06/12 09:52:05;;;;;;;7.50;5.18;;;;;;;;;;5090877;28;20063;-61
2021/06/12 09:54:51;;;;;;;5.80;5.22;;;;;;;;;;5091262;28;20028;-61
2021/06/12 09:57:19;;;;;;;8.02;5.28;;;;;;;;;;5090988;28;20505;-61
2021/06/12 09:59:46;;;;;;;5.88;5.28;;;;;;;;;;5090871;28;20031;-61
2021/06/12 10:02:12;;;;;;;6.15;4.03;;;;;;;;;;5090573;28;20032;-61
2021/06/12 10:04:54;;;;;;;7.90;4.47;;;;;;;;;;5090751;28;20781;-61
2021/06/12 10:07:21;;;;;;;5.18;4.68;;;;;;;;;;5090995;28;20498;-62
2021/06/12 10:09:46;;;;;;;5.43;4.97;;;;;;;;;;5090682;28;20564;-61
2021/06/12 10:12:12;;;;;;;5.25;4.57;;;;;;;;;;5089987;28;20035;-61
2021/06/12 10:14:38;;;;;;;8.25;5.25;;;;;;;;;;5090904;28;20020;-61
2021/06/12 10:17:04;;;;;;;7.00;4.82;;;;;;;;;;5091011;28;20043;-61
2021/06/12 10:19:31;;;;;;;5.57;5.10;;;;;;;;;;5090694;28;20024;-61
2021/06/12 10:21:57;;;;;;;5.00;4.35;;;;;;;;;;5087969;28;20470;-62
2021/06/12 10:24:23;;;;;;;4.60;4.20;;;;;;;;;;5090577;28;20016;-62
2021/06/12 10:26:48;;;;;;;6.53;4.82;;;;;;;;;;5090834;28;20034;-61
2021/06/12 10:29:16;;;;;;;5.78;4.97;;;;;;;;;;5089958;28;20470;-61
2021/06/12 10:31:42;;;;;;;5.53;5.03;;;;;;;;;;5092605;28;20036;-61
2021/06/12 10:34:08;;;;;;;6.32;5.47;;;;;;;;;;5092917;28;20016;-61
2021/06/12 10:36:34;;;;;;;5.63;5.13;;;;;;;;;;5092370;28;20058;-61
2021/06/12 10:39:00;;;;;;;4.70;4.30;;;;;;;;;;5092763;28;20390;-61
2021/06/12 10:41:27;;;;;;;5.15;4.28;;;;;;;;;;5091723;28;20486;-61
2021/06/12 10:43:58;;;;;;;5.95;5.43;;;;;;;;;;5093253;28;20032;-61
2021/06/12 10:46:29;;;;;;;7.60;4.90;;;;;;;;;;5093273;28;20083;-61
2021/06/12 10:48:56;;;;;;;4.60;4.30;;;;;;;;;;5089112;28;20462;-61
2021/06/12 10:51:25;;;;;;;4.43;2.30;;;;;;;;;;5099758;28;20028;-61
2021/06/12 10:54:18;;;;;;;5.40;4.45;;;;;;;;;;5093068;28;20504;-62
2021/06/12 10:56:45;;;;;;;5.32;4.88;;;;;;;;;;5092934;28;20043;-61
2021/06/12 10:59:12;;;;;;;6.15;5.28;;;;;;;;;;5093210;28;20016;-61
2021/06/12 11:01:58;;;;;;;6.45;4.70;;;;;;;;;;5093067;28;20447;-61
2021/06/12 11:04:56;;;;;;;5.18;4.82;;;;;;;;;;5091912;28;20066;-61
2021/06/12 11:07:26;;;;;;;5.63;5.22;;;;;;;;;;5083950;28;20619;-61
2021/06/12 11:09:52;;;;;;;4.20;3.65;;;;;;;;;;5093024;28;20416;-61
2021/06/12 11:12:17;;;;;;;5.88;5.38;;;;;;;;;;5093108;28;20115;-61
2021/06/12 11:14:56;;;;;;;4.55;3.78;;;;;;;;;;5093077;28;20120;-61
2021/06/12 11:17:22;;;;;;;5.22;4.72;;;;;;;;;;5092887;28;20029;-61
2021/06/12 11:19:48;;;;;;;3.53;3.03;;;;;;;;;;5093170;28;20008;-61
2021/06/12 11:22:32;;;;;;;1.50;1.48;;;;;;;;;;5092858;28;20073;-62
2021/06/12 11:24:58;;;;;;;4.35;3.80;;;;;;;;;;5096538;28;20028;-61
2021/06/12 11:27:39;;;;;;;5.35;4.50;;;;;;;;;;5096686;28;20064;-61
2021/06/12 11:30:11;;;;;;;5.60;4.45;;;;;;;;;;5096463;28;20032;-61
2021/06/12 11:32:41;;;;;;;4.00;3.70;;;;;;;;;;5096711;28;20023;-61
2021/06/12 11:35:07;;;;;;;4.40;4.00;;;;;;;;;;5096670;28;20114;-62
2021/06/12 11:37:33;;;;;;;5.30;4.90;;;;;;;;;;5096443;28;20115;-62
2021/06/12 11:40:01;;;;;;;5.72;4.57;;;;;;;;;;5096594;28;20028;-61
2021/06/12 11:42:46;;;;;;;4.00;3.70;;;;;;;;;;5096076;28;20060;-62
2021/06/12 11:45:15;;;;;;;4.38;4.07;;;;;;;;;;5096396;28;20378;-61
2021/06/12 11:47:41;;;;;;;2.42;2.22;;;;;;;;;;5096090;28;20040;-62
2021/06/12 11:50:07;;;;;;;6.18;3.88;;;;;;;;;;5095466;28;20030;-62
2021/06/12 11:52:40;;;;;;;4.20;3.90;;;;;;;;;;5096428;28;20036;-62
2021/06/12 11:55:16;;;;;;;4.15;3.85;;;;;;;;;;5095766;28;20032;-61
2021/06/12 11:57:46;;;;;;;4.75;4.30;;;;;;;;;;5095934;28;20549;-62
2021/06/12 12:00:30;;;;;;;4.32;4.03;;;;;;;;;;5095890;28;20066;-61
2021/06/12 12:02:59;;;;;;;4.78;4.38;;;;;;;;;;5094416;28;20080;-62
2021/06/12 12:05:35;;;;;;;4.43;3.92;;;;;;;;;;5095930;28;20043;-62
2021/06/12 12:08:02;;;;;;;3.70;3.45;;;;;;;;;;5096073;28;20062;-61
2021/06/12 12:10:28;;;;;;;4.28;3.97;;;;;;;;;;5095599;28;20055;-61
2021/06/12 12:12:54;;;;;;;3.40;3.17;;;;;;;;;;5095769;28;20489;-62
2021/06/12 12:15:38;;;;;;;4.50;4.20;;;;;;;;;;5095851;28;20099;-61
2021/06/12 12:18:05;;;;;;;4.20;3.90;;;;;;;;;;5095409;28;20024;-62
2021/06/12 12:20:35;;;;;;;3.97;3.70;;;;;;;;;;5095324;28;20027;-62
2021/06/12 12:23:02;;;;;;;4.15;3.75;;;;;;;;;;5095366;28;20032;-61
2021/06/12 12:25:28;;;;;;;4.00;3.75;;;;;;;;;;5095730;28;20020;-61
2021/06/12 12:28:00;;;;;;;5.85;4.32;;;;;;;;;;5095700;28;20028;-62
2021/06/12 12:30:26;;;;;;;4.65;4.18;;;;;;;;;;5095204;28;20546;-61
2021/06/12 12:32:52;;;;;;;4.20;3.80;;;;;;;;;;5095053;28;20024;-61
2021/06/12 12:35:18;;;;;;;3.92;3.63;;;;;;;;;;5094426;28;20024;-62
2021/06/12 12:37:43;;;;;;;3.90;3.70;;;;;;;;;;5095269;28;20020;-62
2021/06/12 12:40:19;;;;;;;4.25;3.90;;;;;;;;;;5094966;28;20123;-61
2021/06/12 12:42:45;;;;;;;3.78;3.47;;;;;;;;;;5094524;28;20063;-62
2021/06/12 12:45:10;;;;;;;3.75;3.45;;;;;;;;;;5095632;28;20027;-62
2021/06/12 12:47:36;;;;;;;3.30;3.20;;;;;;;;;;5094741;28;20119;-61
2021/06/12 12:50:03;;;;;;;3.03;2.83;;;;;;;;;;5093694;28;20072;-62
2021/06/12 12:52:29;;;;;;;3.67;3.38;;;;;;;;;;5094177;28;20047;-61
2021/06/12 12:55:12;;;;;;;4.75;2.50;;;;;;;;;;5094903;28;20066;-61
2021/06/12 12:57:45;;;;;;;2.72;2.53;;;;;;;;;;5094969;28;20032;-61
2021/06/12 13:00:14;;;;;;;3.20;2.90;;;;;;;;;;5094781;28;20485;-61
2021/06/12 13:02:39;;;;;;;3.22;2.88;;;;;;;;;;5094444;28;20012;-61
2021/06/12 13:05:13;;;;;;;3.13;2.97;;;;;;;;;;5094581;28;20472;-61
2021/06/12 13:07:38;;;;;;;3.67;3.15;;;;;;;;;;5094257;28;20142;-62
2021/06/12 13:10:09;;;;;;;3.30;3.00;;;;;;;;;;5094610;28;20446;-62
2021/06/12 13:12:35;;;;;;;3.08;2.30;;;;;;;;;;5095166;28;20039;-62
2021/06/12 13:15:08;;;;;;;1.20;1.20;;;;;;;;;;5094768;28;20020;-62
2021/06/12 13:17:34;;;;;;;1.95;1.85;;;;;;;;;;5094507;28;20502;-62
2021/06/12 13:20:06;;;;;;;4.85;2.10;;;;;;;;;;5094811;28;20027;-62
2021/06/12 13:22:36;;;;;;;2.08;1.98;;;;;;;;;;5094781;28;20084;-62
2021/06/12 13:25:05;;;;;;;3.13;2.60;;;;;;;;;;5094342;28;20028;-62
2021/06/12 13:27:32;;;;;;;5.80;2.60;;;;;;;;;;5093145;28;20093;-62
2021/06/12 13:29:58;;;;;;;2.42;2.03;;;;;;;;;;5094509;28;20020;-62
2021/06/12 13:32:27;;;;;;;2.20;2.10;;;;;;;;;;5094451;28;20378;-62
2021/06/12 13:34:53;;;;;;;2.38;1.90;;;;;;;;;;5094191;28;20061;-62
2021/06/12 13:37:19;;;;;;;3.25;1.67;;;;;;;;;;5093875;28;20032;-62
2021/06/12 13:39:59;;;;;;;1.77;1.60;;;;;;;;;;5093785;28;20024;-62
2021/06/12 13:42:32;;;;;;;3.03;1.80;;;;;;;;;;5094170;28;20374;-62
2021/06/12 13:45:06;;;;;;;2.38;1.55;;;;;;;;;;5094022;28;20386;-62
2021/06/12 13:51:07;;;;;;;1.75;1.65;;;;;;;;;;5094090;28;20065;-62
2021/06/12 13:57:07;;;;;;;1.98;1.85;;;;;;;;;;5094147;28;20206;-62
2021/06/12 14:03:08;;;;;;;2.40;2.20;;;;;;;;;;5094177;28;20501;-62
2021/06/12 14:09:09;;;;;;;2.67;2.38;;;;;;;;;;5093882;28;20031;-62
2021/06/12 14:15:11;;;;;;;2.45;2.35;;;;;;;;;;5094041;28;20019;-62
2021/06/12 14:21:12;;;;;;;2.47;2.38;;;;;;;;;;5093743;28;20062;-62
2021/06/12 14:27:13;;;;;;;2.63;2.53;;;;;;;;;;5093941;28;20085;-62
2021/06/12 14:33:14;;;;;;;2.88;2.67;;;;;;;;;;5093883;28;20051;-62
2021/06/12 14:39:15;;;;;;;2.90;2.70;;;;;;;;;;5093554;28;20039;-63
2021/06/12 14:48:48;;;;;;;3.50;3.28;;;;;;;;;;5093715;28;20072;-62
2021/06/12 14:54:49;;;;;;;3.50;3.30;;;;;;;;;;5093724;28;20030;-63
2021/06/12 15:00:50;;;;;;;3.90;3.67;;;;;;;;;;5097599;28;20476;-62
2021/06/12 15:06:54;;;;;;;4.05;3.80;;;;;;;;;;5097455;28;20066;-62
2021/06/12 15:12:55;;;;;;;5.07;4.40;;;;;;;;;;5097327;28;20112;-63
2021/06/12 15:22:46;;;;;;;5.00;4.35;;;;;;;;;;5097162;28;20030;-62
2021/06/12 15:28:28;;;;;;;5.10;4.70;;;;;;;;;;5097066;28;20400;-62
2021/06/12 15:34:28;;;;;;;7.15;6.20;;;;;;;;;;5096922;28;20414;-63
2021/06/12 15:40:30;;;;;;;7.35;5.30;;;;;;;;;;5096816;28;20090;-62
2021/06/12 15:50:19;;;;;;;9.23;5.70;;;;;;;;;;5096588;28;20147;-63
2021/06/12 15:56:20;;;;;;;5.85;5.35;;;;;;;;;;5096422;28;20019;-62